createdAt,value
2022-08-17T00:01:24.187Z,28.92
2022-08-17T00:05:31.543Z,27.95
2022-08-17T00:09:33.601Z,30.88
2022-08-17T00:13:41.682Z,29.98
2022-08-17T00:17:47.177Z,30.20
2022-08-17T00:22:31.451Z,29.23
2022-08-17T00:26:14.294Z,28.70
2022-08-17T00:30:16.069Z,29.83
2022-08-17T00:34:18.017Z,28.48
2022-08-17T00:38:20.270Z,29.48
2022-08-17T00:42:21.877Z,29.25
2022-08-17T00:46:30.388Z,28.55
2022-08-17T00:50:32.458Z,28.45
2022-08-17T00:54:41.833Z,27.45
2022-08-17T00:58:44.651Z,26.90
2022-08-17T01:02:47.824Z,28.67
2022-08-17T01:06:50.963Z,26.48
2022-08-17T01:10:57.254Z,27.38
2022-08-17T01:15:05.906Z,24.95
2022-08-17T01:19:17.028Z,26.05
2022-08-17T01:23:21.351Z,26.23
2022-08-17T01:27:24.477Z,25.50
2022-08-17T01:31:30.627Z,25.02
2022-08-17T01:35:32.258Z,26.48
2022-08-17T01:39:42.237Z,25.30
2022-08-17T01:43:49.723Z,24.77
2022-08-17T01:47:52.964Z,25.02
2022-08-17T01:51:55.189Z,23.92
2022-08-17T01:56:08.518Z,23.98
2022-08-17T02:00:10.875Z,22.73
2022-08-17T02:04:12.822Z,23.42
2022-08-17T02:08:20.026Z,26.80
2022-08-17T02:12:39.340Z,27.65
2022-08-17T02:16:41.913Z,23.85
2022-08-17T02:20:43.819Z,21.98
2022-08-17T02:24:58.798Z,20.33
2022-08-17T02:29:04.166Z,18.77
2022-08-17T02:33:09.399Z,18.08
2022-08-17T02:37:11.136Z,16.75
2022-08-17T02:41:13.034Z,14.82
2022-08-17T02:45:20.812Z,14.15
2022-08-17T02:53:23.995Z,13.32
2022-08-17T02:57:27.243Z,12.32
2022-08-17T03:01:29.103Z,13.00
2022-08-17T03:05:33.869Z,12.27
2022-08-17T03:09:35.559Z,12.10
2022-08-17T03:13:37.412Z,10.90
2022-08-17T03:17:39.254Z,11.02
2022-08-17T03:21:40.910Z,10.68
2022-08-17T03:25:44.100Z,10.68
2022-08-17T03:29:45.967Z,9.52
2022-08-17T03:33:48.173Z,10.23
2022-08-17T03:37:56.961Z,11.70
2022-08-17T03:42:32.278Z,11.00
2022-08-17T03:46:52.923Z,11.90
2022-08-17T03:51:15.313Z,11.98
2022-08-17T03:55:36.329Z,12.85
2022-08-17T03:59:39.462Z,14.02
2022-08-17T04:03:42.603Z,13.50
2022-08-17T04:07:44.275Z,13.85
2022-08-17T04:11:45.856Z,13.60
2022-08-17T04:15:49.170Z,14.68
2022-08-17T04:19:50.933Z,14.85
2022-08-17T04:23:52.752Z,15.45
2022-08-17T04:27:55.034Z,15.23
2022-08-17T04:31:58.075Z,16.10
2022-08-17T04:36:02.119Z,14.57
2022-08-17T04:40:23.034Z,15.05
2022-08-17T04:44:36.950Z,16.17
2022-08-17T04:48:43.515Z,15.57
2022-08-17T04:52:46.384Z,16.20
2022-08-17T04:56:48.290Z,18.70
2022-08-17T05:00:50.168Z,16.60
2022-08-17T05:04:51.850Z,16.52
2022-08-17T05:08:54.845Z,17.92
2022-08-17T05:13:11.811Z,18.75
2022-08-17T05:17:13.553Z,18.77
2022-08-17T05:21:15.899Z,20.58
2022-08-17T05:25:24.957Z,20.35
2022-08-17T05:29:35.289Z,20.40
2022-08-17T05:33:44.291Z,20.70
2022-08-17T05:37:46.938Z,18.85
2022-08-17T05:41:48.649Z,18.10
2022-08-17T05:46:03.370Z,19.17
2022-08-17T05:50:09.435Z,17.55
2022-08-17T05:54:26.609Z,16.40
2022-08-17T05:58:49.479Z,15.68
2022-08-17T06:03:24.317Z,17.00
2022-08-17T06:07:37.793Z,17.17
2022-08-17T06:11:47.872Z,15.20
2022-08-17T06:16:04.702Z,16.88
2022-08-17T06:20:36.016Z,17.33
2022-08-17T06:24:58.993Z,17.88
2022-08-17T06:29:04.350Z,17.40
2022-08-17T06:33:21.169Z,17.50
2022-08-17T06:37:48.818Z,17.95
2022-08-17T06:41:59.244Z,19.30
2022-08-17T06:46:10.891Z,20.48
2022-08-17T06:50:22.091Z,22.00
2022-08-17T06:54:39.871Z,21.48
2022-08-17T06:58:44.199Z,19.75
2022-08-17T07:03:10.438Z,18.52
2022-08-17T07:07:31.733Z,17.73
2022-08-17T07:11:50.476Z,17.55
2022-08-17T07:15:57.146Z,17.90
2022-08-17T07:20:09.346Z,17.55
2022-08-17T07:24:28.134Z,17.45
2022-08-17T07:28:33.805Z,17.02
2022-08-17T07:32:57.816Z,14.93
2022-08-17T07:37:05.537Z,17.15
2022-08-17T07:41:10.680Z,16.85
2022-08-17T07:45:34.476Z,14.75
2022-08-17T07:49:42.506Z,14.20
2022-08-17T07:53:45.245Z,13.30
2022-08-17T07:57:55.668Z,13.10
2022-08-17T08:02:08.069Z,11.88
2022-08-17T08:06:24.398Z,11.68
2022-08-17T08:10:27.603Z,12.85
2022-08-17T08:14:38.357Z,15.07
2022-08-17T08:18:54.253Z,14.70
2022-08-17T08:23:03.442Z,13.73
2022-08-17T08:27:37.413Z,14.23
2022-08-17T08:31:57.779Z,14.40
2022-08-17T08:36:08.236Z,14.82
2022-08-17T08:40:39.235Z,12.13
2022-08-17T08:45:01.302Z,11.30
2022-08-17T08:49:45.173Z,9.93
2022-08-17T08:54:11.128Z,8.80
2022-08-17T08:58:41.840Z,9.25
2022-08-17T09:02:43.991Z,8.07
2022-08-17T09:06:57.232Z,8.02
2022-08-17T09:11:08.279Z,7.88
2022-08-17T09:15:28.507Z,8.18
2022-08-17T09:19:57.122Z,7.22
2022-08-17T09:28:14.200Z,7.45
2022-08-17T09:32:42.203Z,6.45
2022-08-17T09:36:51.849Z,6.75
2022-08-17T09:41:02.975Z,7.50
2022-08-17T09:45:24.088Z,7.03
2022-08-17T09:49:33.681Z,6.82
2022-08-17T09:53:37.222Z,6.60
2022-08-17T09:57:59.027Z,6.60
2022-08-17T10:02:28.475Z,6.40
2022-08-17T10:06:37.830Z,7.00
2022-08-17T10:10:56.435Z,7.40
2022-08-17T10:15:27.574Z,6.63
2022-08-17T10:19:39.727Z,7.32
2022-08-17T10:24:09.155Z,7.68
2022-08-17T10:28:20.246Z,8.20
2022-08-17T10:32:33.513Z,9.73
2022-08-17T10:36:46.197Z,9.05
2022-08-17T10:41:01.219Z,9.25
2022-08-17T10:45:17.442Z,9.90
2022-08-17T10:49:19.038Z,11.02
2022-08-17T10:53:32.641Z,9.25
2022-08-17T10:57:38.848Z,9.02
2022-08-17T11:01:43.363Z,9.18
2022-08-17T11:05:54.094Z,9.65
2022-08-17T11:10:17.886Z,8.95
2022-08-17T11:15:08.424Z,9.30
2022-08-17T11:19:35.700Z,9.45
2022-08-17T11:24:08.386Z,9.57
2022-08-17T11:28:22.038Z,9.88
2022-08-17T11:32:47.079Z,10.43
2022-08-17T11:37:01.989Z,11.23
2022-08-17T11:41:03.602Z,11.35
2022-08-17T11:45:31.657Z,10.73
2022-08-17T11:50:17.325Z,11.70
2022-08-17T11:54:33.731Z,12.50
2022-08-17T11:58:37.861Z,12.70
2022-08-17T12:02:48.164Z,12.02
2022-08-17T12:07:13.254Z,12.68
2022-08-17T12:11:58.789Z,12.15
2022-08-17T12:15:49.655Z,12.23
2022-08-17T12:19:53.052Z,12.68
2022-08-17T12:24:14.991Z,13.15
2022-08-17T12:28:36.583Z,13.70
2022-08-17T12:32:40.559Z,13.38
2022-08-17T12:36:42.416Z,13.38
2022-08-17T12:40:54.662Z,14.07
2022-08-17T12:45:00.154Z,15.27
2022-08-17T12:49:35.635Z,15.00
2022-08-17T12:53:37.342Z,15.75
2022-08-17T12:57:38.921Z,15.77
2022-08-17T13:01:42.246Z,15.50
2022-08-17T13:05:54.483Z,16.20
2022-08-17T13:09:56.202Z,16.65
2022-08-17T13:14:09.507Z,16.85
2022-08-17T13:18:33.612Z,16.02
2022-08-17T13:22:35.318Z,16.75
2022-08-17T13:26:49.116Z,17.13
2022-08-17T13:30:50.727Z,16.70
2022-08-17T13:35:11.931Z,16.05
2022-08-17T13:39:22.904Z,16.92
2022-08-17T13:43:45.301Z,17.00
2022-08-17T13:47:47.095Z,16.55
2022-08-17T13:51:51.510Z,16.30
2022-08-17T13:56:37.531Z,17.08
2022-08-17T14:00:36.765Z,17.33
2022-08-17T14:04:41.419Z,15.80
2022-08-17T14:08:43.045Z,17.30
2022-08-17T14:12:46.828Z,17.05
2022-08-17T14:16:50.222Z,16.80
2022-08-17T14:20:53.288Z,16.65
2022-08-17T14:24:54.923Z,16.63
2022-08-17T14:28:57.134Z,15.98
2022-08-17T14:32:59.537Z,15.98
2022-08-17T14:37:01.144Z,15.80
2022-08-17T14:41:03.048Z,13.75
2022-08-17T14:45:07.022Z,14.32
2022-08-17T14:49:30.265Z,14.02
2022-08-17T14:53:32.156Z,13.23
2022-08-17T14:57:34.627Z,12.48
2022-08-17T15:01:36.827Z,13.15
2022-08-17T15:05:39.497Z,13.70
2022-08-17T15:09:41.108Z,13.52
2022-08-17T15:13:53.107Z,13.45
2022-08-17T15:17:55.093Z,13.02
2022-08-17T15:21:57.021Z,12.55
2022-08-17T15:25:58.829Z,12.00
2022-08-17T15:30:01.907Z,11.43
2022-08-17T15:34:05.302Z,12.30
2022-08-17T15:38:12.345Z,11.68
2022-08-17T15:42:14.680Z,10.88
2022-08-17T15:46:20.378Z,10.90
2022-08-17T15:50:22.120Z,11.30
2022-08-17T15:54:23.776Z,10.95
2022-08-17T15:58:29.849Z,11.27
2022-08-17T16:03:44.837Z,10.45
2022-08-17T16:06:57.577Z,10.32
2022-08-17T16:10:59.633Z,11.13
2022-08-17T16:15:02.507Z,10.93
2022-08-17T16:19:04.129Z,12.77
2022-08-17T16:23:05.865Z,14.35
2022-08-17T16:27:12.523Z,11.40
2022-08-17T16:31:14.582Z,11.60
2022-08-17T16:35:16.970Z,10.55
2022-08-17T16:39:18.650Z,10.98
2022-08-17T16:43:20.300Z,12.75
2022-08-17T16:47:22.597Z,12.13
2022-08-17T16:51:24.776Z,10.88
2022-08-17T16:55:26.579Z,13.18
2022-08-17T16:59:30.446Z,11.45
2022-08-17T17:03:34.733Z,10.93
2022-08-17T17:07:40.222Z,11.35
2022-08-17T17:11:47.739Z,10.43
2022-08-17T17:15:58.987Z,10.48
2022-08-17T17:20:11.251Z,10.48
2022-08-17T17:24:36.856Z,10.15
2022-08-17T17:28:56.971Z,11.27
2022-08-17T17:33:29.772Z,9.85
2022-08-17T17:37:38.012Z,10.05
2022-08-17T17:41:54.069Z,8.98
2022-08-17T17:46:26.580Z,9.80
2022-08-17T17:50:34.628Z,9.70
2022-08-17T17:55:01.055Z,8.88
2022-08-17T17:59:18.516Z,9.48
2022-08-17T18:03:46.145Z,8.60
2022-08-17T18:07:59.204Z,8.13
2022-08-17T18:12:11.236Z,8.80
2022-08-17T18:16:14.400Z,8.75
2022-08-17T18:20:35.934Z,7.72
2022-08-17T18:24:57.160Z,8.65
2022-08-17T18:29:00.458Z,7.65
2022-08-17T18:33:23.680Z,6.68
2022-08-17T18:37:36.031Z,7.65
2022-08-17T18:41:47.014Z,7.20
2022-08-17T18:45:52.185Z,7.03
2022-08-17T18:50:27.384Z,7.53
2022-08-17T18:54:29.072Z,7.55
2022-08-17T18:58:30.789Z,7.85
2022-08-17T19:02:45.270Z,6.70
2022-08-17T19:07:03.507Z,7.10
2022-08-17T19:11:16.834Z,6.93
2022-08-17T19:15:30.094Z,6.55
2022-08-17T19:19:49.329Z,6.47
2022-08-17T19:24:01.365Z,7.53
2022-08-17T19:28:15.397Z,6.70
2022-08-17T19:32:32.069Z,5.82
2022-08-17T19:36:52.926Z,5.88
2022-08-17T19:41:06.704Z,6.00
2022-08-17T19:45:08.371Z,6.25
2022-08-17T19:49:22.666Z,6.78
2022-08-17T19:54:05.790Z,6.07
2022-08-17T19:58:17.954Z,6.78
2022-08-17T20:02:42.526Z,22.27
2022-08-17T20:06:49.232Z,23.70
2022-08-17T20:10:57.004Z,11.70
2022-08-17T20:15:04.892Z,7.53
2022-08-17T20:23:59.811Z,7.20
2022-08-17T20:28:29.569Z,6.25
2022-08-17T20:32:55.344Z,6.93
2022-08-17T20:37:08.783Z,6.72
2022-08-17T20:41:20.956Z,6.35
2022-08-17T20:45:26.168Z,6.18
2022-08-17T20:49:45.670Z,6.25
2022-08-17T20:53:47.211Z,6.57
2022-08-17T20:57:49.024Z,6.60
2022-08-17T21:02:20.675Z,6.25
2022-08-17T21:06:25.027Z,6.28
2022-08-17T21:10:26.539Z,7.15
2022-08-17T21:14:58.644Z,10.18
2022-08-17T21:19:09.867Z,8.98
2022-08-17T21:23:21.066Z,8.57
2022-08-17T21:28:00.531Z,7.80
2022-08-17T21:32:05.418Z,6.57
2022-08-17T21:36:15.151Z,6.80
2022-08-17T21:40:27.132Z,6.00
2022-08-17T21:44:35.185Z,5.72
2022-08-17T21:48:49.296Z,6.20
2022-08-17T21:52:57.209Z,6.15
2022-08-17T21:57:02.310Z,6.20
2022-08-17T22:01:19.389Z,5.97
2022-08-17T22:09:40.404Z,5.55
2022-08-17T22:13:42.044Z,6.10
2022-08-17T22:17:46.759Z,5.30
2022-08-17T22:22:03.253Z,5.97
2022-08-17T22:26:09.680Z,5.57
2022-08-17T22:30:31.996Z,5.25
2022-08-17T22:34:33.662Z,5.50
2022-08-17T22:38:35.652Z,5.93
2022-08-17T22:42:49.716Z,4.93
2022-08-17T22:46:54.456Z,5.05
2022-08-17T22:51:12.469Z,5.47
2022-08-17T22:55:36.267Z,6.60
2022-08-17T22:59:41.489Z,7.18
2022-08-17T23:03:54.715Z,6.38
2022-08-17T23:07:56.376Z,6.25
2022-08-17T23:11:58.780Z,5.32
2022-08-17T23:16:00.498Z,5.97
2022-08-17T23:20:02.778Z,5.28
2022-08-17T23:24:08.786Z,5.80
2022-08-17T23:28:11.334Z,5.68
2022-08-17T23:32:15.826Z,5.82
2022-08-17T23:36:17.548Z,5.45
2022-08-17T23:40:19.226Z,4.78
2022-08-17T23:44:24.294Z,5.00
2022-08-17T23:48:34.961Z,5.05
2022-08-17T23:52:41.236Z,4.80
2022-08-17T23:56:48.405Z,4.90
